createdAt,value
2017-11-08T00:00:01.076Z,34.20
2017-11-08T00:02:29.183Z,24.42
2017-11-08T00:04:57.615Z,26.50
2017-11-08T00:07:26.001Z,27.85
2017-11-08T00:09:54.136Z,28.87
2017-11-08T00:12:23.884Z,29.90
2017-11-08T00:14:51.962Z,27.70
2017-11-08T00:17:20.442Z,32.72
2017-11-08T00:19:48.017Z,28.25
2017-11-08T00:22:19.071Z,32.72
2017-11-08T00:24:47.373Z,35.17
2017-11-08T00:27:15.438Z,30.25
2017-11-08T00:29:42.949Z,26.02
2017-11-08T00:32:10.476Z,31.40
2017-11-08T00:34:37.977Z,29.52
2017-11-08T00:37:05.483Z,26.90
2017-11-08T00:39:33.040Z,31.98
2017-11-08T00:42:00.572Z,30.70
2017-11-08T00:44:28.859Z,37.40
2017-11-08T00:46:56.572Z,34.10
2017-11-08T00:49:24.674Z,37.80
2017-11-08T00:51:52.232Z,32.15
2017-11-08T00:54:20.550Z,32.15
2017-11-08T00:56:48.051Z,32.10
2017-11-08T00:59:15.544Z,36.13
2017-11-08T01:01:43.071Z,35.05
2017-11-08T01:04:10.602Z,28.45
2017-11-08T01:06:38.127Z,27.00
2017-11-08T01:09:05.648Z,26.77
2017-11-08T01:11:33.181Z,31.33
2017-11-08T01:14:00.692Z,27.67
2017-11-08T01:16:28.990Z,28.92
2017-11-08T01:18:56.493Z,37.95
2017-11-08T01:21:24.153Z,31.67
2017-11-08T01:23:51.680Z,27.80
2017-11-08T01:26:19.180Z,27.33
2017-11-08T01:28:46.672Z,30.12
2017-11-08T01:31:14.201Z,36.42
2017-11-08T01:33:44.671Z,31.30
2017-11-08T01:36:12.513Z,29.17
2017-11-08T01:38:43.071Z,30.30
2017-11-08T01:41:16.362Z,35.63
2017-11-08T01:43:43.883Z,33.33
2017-11-08T01:46:18.008Z,32.92
2017-11-08T01:48:45.524Z,33.90
2017-11-08T01:51:13.837Z,42.50
2017-11-08T01:53:42.310Z,30.42
2017-11-08T01:56:10.329Z,33.38
2017-11-08T01:58:38.000Z,34.17
2017-11-08T02:01:05.514Z,34.65
2017-11-08T02:03:33.822Z,34.28
2017-11-08T02:06:01.342Z,34.85
2017-11-08T02:08:29.128Z,38.95
2017-11-08T02:10:56.839Z,41.03
2017-11-08T02:13:24.341Z,32.45
2017-11-08T02:15:52.627Z,37.10
2017-11-08T02:18:22.054Z,34.63
2017-11-08T02:20:49.578Z,38.40
2017-11-08T02:23:17.097Z,34.38
2017-11-08T02:25:44.606Z,38.60
2017-11-08T02:28:12.609Z,34.72
2017-11-08T02:30:40.164Z,36.70
2017-11-08T02:33:07.687Z,38.42
2017-11-08T02:35:35.201Z,32.25
2017-11-08T02:38:02.744Z,33.80
2017-11-08T02:40:30.268Z,36.33
2017-11-08T02:42:57.788Z,35.30
2017-11-08T02:45:30.907Z,41.25
2017-11-08T02:47:59.179Z,34.25
2017-11-08T02:50:27.450Z,34.67
2017-11-08T02:52:55.765Z,30.40
2017-11-08T02:55:23.296Z,32.85
2017-11-08T02:57:50.821Z,32.90
2017-11-08T03:00:18.349Z,39.47
2017-11-08T03:02:51.254Z,36.65
2017-11-08T03:05:18.932Z,33.30
2017-11-08T03:07:46.731Z,31.23
2017-11-08T03:10:14.255Z,34.85
2017-11-08T03:12:41.791Z,33.22
2017-11-08T03:15:09.309Z,31.33
2017-11-08T03:17:36.832Z,34.58
2017-11-08T03:20:04.367Z,39.13
2017-11-08T03:22:31.880Z,42.17
2017-11-08T03:24:59.404Z,42.67
2017-11-08T03:27:26.944Z,35.88
2017-11-08T03:29:54.465Z,36.75
2017-11-08T03:32:22.169Z,35.67
2017-11-08T03:34:49.783Z,40.55
2017-11-08T03:37:17.303Z,40.40
2017-11-08T03:39:44.820Z,37.47
2017-11-08T03:42:12.352Z,35.33
2017-11-08T03:44:40.650Z,38.80
2017-11-08T03:47:08.175Z,32.45
2017-11-08T03:49:36.476Z,38.15
2017-11-08T03:52:03.976Z,40.58
2017-11-08T03:54:31.482Z,32.42
2017-11-08T03:56:59.795Z,35.58
2017-11-08T03:59:27.302Z,37.53
2017-11-08T04:01:55.579Z,36.10
2017-11-08T04:04:23.865Z,41.65
2017-11-08T04:06:52.134Z,32.70
2017-11-08T04:09:20.416Z,32.42
2017-11-08T04:11:48.714Z,37.55
2017-11-08T04:14:16.213Z,33.58
2017-11-08T04:16:43.729Z,33.28
2017-11-08T04:19:11.257Z,37.50
2017-11-08T04:21:39.577Z,34.00
2017-11-08T04:24:07.132Z,37.05
2017-11-08T04:26:34.691Z,31.05
2017-11-08T04:29:02.228Z,33.65
2017-11-08T04:31:30.532Z,34.72
2017-11-08T04:33:58.913Z,32.90
2017-11-08T04:36:27.059Z,30.02
2017-11-08T04:38:54.817Z,32.67
2017-11-08T04:41:23.122Z,32.22
2017-11-08T04:43:50.622Z,31.98
2017-11-08T04:46:18.148Z,29.55
2017-11-08T04:48:45.664Z,37.40
2017-11-08T04:51:13.952Z,37.55
2017-11-08T04:53:42.235Z,42.05
2017-11-08T04:56:09.777Z,33.75
2017-11-08T04:58:39.223Z,41.45
2017-11-08T05:01:06.757Z,38.15
2017-11-08T05:03:34.277Z,44.75
2017-11-08T05:06:01.809Z,41.28
2017-11-08T05:08:29.773Z,33.75
2017-11-08T05:10:57.392Z,41.78
2017-11-08T05:13:25.676Z,39.92
2017-11-08T05:15:53.209Z,42.95
2017-11-08T05:18:20.729Z,38.00
2017-11-08T05:20:48.253Z,42.35
2017-11-08T05:23:15.780Z,40.80
2017-11-08T05:25:44.218Z,40.40
2017-11-08T05:28:11.778Z,38.67
2017-11-08T05:30:39.304Z,37.10
2017-11-08T05:33:06.824Z,42.00
2017-11-08T05:35:34.334Z,39.05
2017-11-08T05:38:01.851Z,35.63
2017-11-08T05:40:29.386Z,39.00
2017-11-08T05:42:56.889Z,42.38
2017-11-08T05:45:25.185Z,43.50
2017-11-08T05:47:52.723Z,42.42
2017-11-08T05:50:22.241Z,45.47
2017-11-08T05:52:49.745Z,36.53
2017-11-08T05:55:17.291Z,36.05
2017-11-08T05:57:44.797Z,36.17
2017-11-08T06:00:13.068Z,38.20
2017-11-08T06:02:40.637Z,38.42
2017-11-08T06:05:08.927Z,37.17
2017-11-08T06:07:36.463Z,35.08
2017-11-08T06:10:04.768Z,35.75
2017-11-08T06:12:32.258Z,36.65
2017-11-08T06:14:59.765Z,38.58
2017-11-08T06:17:28.064Z,42.22
2017-11-08T06:19:55.583Z,40.83
2017-11-08T06:22:23.835Z,40.92
2017-11-08T06:24:51.580Z,42.53
2017-11-08T06:27:19.103Z,45.95
2017-11-08T06:29:47.374Z,53.53
2017-11-08T06:32:15.682Z,55.60
2017-11-08T06:34:43.208Z,45.88
2017-11-08T06:37:11.608Z,48.63
2017-11-08T06:39:39.116Z,58.13
2017-11-08T06:42:06.650Z,49.75
2017-11-08T06:44:34.181Z,55.10
2017-11-08T06:47:01.708Z,55.92
2017-11-08T06:49:29.242Z,56.03
2017-11-08T06:51:57.012Z,55.28
2017-11-08T06:54:24.670Z,51.95
2017-11-08T06:56:52.996Z,53.40
2017-11-08T06:59:20.528Z,56.17
2017-11-08T07:01:48.042Z,62.17
2017-11-08T07:04:15.614Z,65.75
2017-11-08T07:06:43.145Z,70.05
2017-11-08T07:09:11.592Z,67.45
2017-11-08T07:11:39.233Z,64.12
2017-11-08T07:14:06.786Z,63.40
2017-11-08T07:16:34.296Z,67.53
2017-11-08T07:19:01.805Z,63.10
2017-11-08T07:21:29.859Z,60.42
2017-11-08T07:23:58.206Z,72.78
2017-11-08T07:26:25.750Z,65.80
2017-11-08T07:28:54.082Z,65.32
2017-11-08T07:31:21.581Z,73.05
2017-11-08T07:33:49.871Z,66.47
2017-11-08T07:36:18.421Z,63.80
2017-11-08T07:38:45.941Z,67.05
2017-11-08T07:41:13.437Z,70.32
2017-11-08T07:43:40.992Z,67.43
2017-11-08T07:46:08.516Z,61.88
2017-11-08T07:48:36.040Z,62.10
2017-11-08T07:51:04.355Z,60.10
2017-11-08T07:53:31.854Z,63.90
2017-11-08T07:56:03.312Z,68.10
2017-11-08T07:58:31.152Z,66.40
2017-11-08T08:00:59.488Z,81.72
2017-11-08T08:03:26.994Z,61.80
2017-11-08T08:05:54.640Z,62.58
2017-11-08T08:08:22.197Z,63.53
2017-11-08T08:10:49.724Z,57.80
2017-11-08T08:13:19.149Z,61.75
2017-11-08T08:15:46.683Z,65.75
2017-11-08T08:18:14.968Z,68.28
2017-11-08T08:20:42.487Z,62.62
2017-11-08T08:23:10.053Z,63.72
2017-11-08T08:25:38.333Z,55.30
2017-11-08T08:28:06.187Z,58.38
2017-11-08T08:30:33.742Z,52.45
2017-11-08T08:33:01.246Z,55.15
2017-11-08T08:35:28.788Z,54.95
2017-11-08T08:37:56.641Z,57.17
2017-11-08T08:40:24.431Z,56.20
2017-11-08T08:42:51.980Z,60.80
2017-11-08T08:45:19.878Z,58.22
2017-11-08T08:47:47.401Z,61.00
2017-11-08T08:50:15.680Z,64.47
2017-11-08T08:52:44.654Z,55.60
2017-11-08T08:55:12.211Z,63.87
2017-11-08T08:57:39.704Z,56.60
2017-11-08T09:00:07.252Z,55.17
2017-11-08T09:02:35.520Z,55.10
2017-11-08T09:05:03.370Z,62.03
2017-11-08T09:07:30.933Z,57.33
2017-11-08T09:09:58.440Z,59.22
2017-11-08T09:12:25.961Z,58.40
2017-11-08T09:14:54.279Z,59.35
2017-11-08T09:17:21.795Z,59.38
2017-11-08T09:19:49.304Z,60.35
2017-11-08T09:22:16.826Z,52.85
2017-11-08T09:24:50.031Z,59.58
2017-11-08T09:27:17.581Z,57.78
2017-11-08T09:29:46.886Z,59.85
2017-11-08T09:32:14.416Z,57.40
2017-11-08T09:34:46.959Z,57.78
2017-11-08T09:37:14.462Z,62.05
2017-11-08T09:39:42.749Z,57.65
2017-11-08T09:45:03.920Z,60.80
2017-11-08T09:47:32.085Z,53.42
2017-11-08T09:50:00.618Z,56.00
2017-11-08T09:52:28.201Z,54.97
2017-11-08T09:54:55.722Z,58.03
2017-11-08T09:57:26.210Z,56.80
2017-11-08T09:59:53.782Z,52.08
2017-11-08T10:02:21.287Z,54.47
2017-11-08T10:04:49.645Z,52.85
2017-11-08T10:07:17.164Z,54.92
2017-11-08T10:09:50.501Z,50.65
2017-11-08T10:12:17.953Z,53.28
2017-11-08T10:14:45.776Z,51.13
2017-11-08T10:17:13.360Z,49.00
2017-11-08T10:19:40.881Z,49.65
2017-11-08T10:22:10.818Z,52.53
2017-11-08T10:24:43.300Z,59.75
2017-11-08T10:27:10.928Z,60.35
2017-11-08T10:29:38.483Z,58.25
2017-11-08T10:32:06.045Z,56.13
2017-11-08T10:34:34.324Z,51.60
2017-11-08T10:37:01.880Z,66.32
2017-11-08T10:39:30.736Z,59.40
2017-11-08T10:41:58.330Z,57.30
2017-11-08T10:44:26.572Z,55.60
2017-11-08T10:46:54.127Z,60.33
2017-11-08T10:49:22.551Z,55.55
2017-11-08T10:51:50.067Z,57.75
2017-11-08T10:54:18.362Z,53.20
2017-11-08T10:56:46.636Z,61.08
2017-11-08T10:59:19.801Z,67.75
2017-11-08T11:01:48.079Z,63.40
2017-11-08T11:04:16.411Z,59.45
2017-11-08T11:06:43.955Z,64.18
2017-11-08T11:09:11.490Z,65.60
2017-11-08T11:11:39.003Z,58.10
2017-11-08T11:14:10.844Z,62.45
2017-11-08T11:16:38.380Z,70.93
2017-11-08T11:19:05.919Z,62.20
2017-11-08T11:21:37.286Z,63.63
2017-11-08T11:24:19.493Z,63.00
2017-11-08T11:26:48.833Z,70.85
2017-11-08T11:29:16.346Z,60.97
2017-11-08T11:31:43.864Z,62.78
2017-11-08T11:34:12.162Z,62.28
2017-11-08T11:36:40.449Z,69.45
2017-11-08T11:39:14.564Z,65.25
2017-11-08T11:41:42.844Z,59.45
2017-11-08T11:44:11.119Z,60.70
2017-11-08T11:46:39.452Z,72.22
2017-11-08T11:49:10.983Z,64.05
2017-11-08T11:51:38.518Z,67.68
2017-11-08T11:54:06.827Z,63.42
2017-11-08T11:56:34.566Z,62.75
2017-11-08T11:59:02.089Z,59.47
2017-11-08T12:01:29.623Z,55.63
2017-11-08T12:03:57.148Z,61.58
2017-11-08T12:06:26.259Z,62.08
2017-11-08T12:08:53.868Z,54.90
2017-11-08T12:11:21.461Z,55.78
2017-11-08T12:13:50.828Z,58.33
2017-11-08T12:16:18.421Z,53.35
2017-11-08T12:18:46.108Z,56.22
2017-11-08T12:21:14.358Z,57.15
2017-11-08T12:23:42.301Z,61.83
2017-11-08T12:26:10.343Z,63.20
2017-11-08T12:28:43.922Z,59.88
2017-11-08T12:31:11.678Z,56.35
2017-11-08T12:33:39.380Z,59.67
2017-11-08T12:36:07.620Z,58.53
2017-11-08T12:38:38.427Z,57.33
2017-11-08T12:41:06.975Z,58.45
2017-11-08T12:43:35.357Z,59.78
2017-11-08T12:46:03.889Z,59.47
2017-11-08T12:48:32.010Z,57.40
2017-11-08T12:50:59.900Z,61.53
2017-11-08T12:53:28.053Z,58.65
2017-11-08T12:55:56.184Z,47.33
2017-11-08T12:58:24.096Z,47.20
2017-11-08T13:00:52.959Z,50.05
2017-11-08T13:03:20.851Z,47.67
2017-11-08T13:05:54.623Z,47.53
2017-11-08T13:08:23.573Z,52.42
2017-11-08T13:10:57.214Z,56.67
2017-11-08T13:13:25.236Z,57.53
2017-11-08T13:15:53.165Z,58.75
2017-11-08T13:18:21.940Z,55.95
2017-11-08T13:20:49.775Z,52.55
2017-11-08T13:23:17.820Z,57.85
2017-11-08T13:25:45.842Z,63.00
2017-11-08T13:28:13.788Z,65.20
2017-11-08T13:30:41.744Z,61.28
2017-11-08T13:33:09.718Z,67.10
2017-11-08T13:35:38.749Z,70.90
2017-11-08T13:38:07.475Z,80.20
2017-11-08T13:40:35.953Z,78.55
2017-11-08T13:43:04.196Z,90.60
2017-11-08T13:45:32.519Z,92.97
2017-11-08T13:48:01.098Z,90.82
2017-11-08T13:50:30.357Z,94.18
2017-11-08T13:52:59.160Z,104.03
2017-11-08T13:55:28.122Z,105.35
2017-11-08T13:57:56.141Z,119.55
2017-11-08T14:00:24.180Z,112.53
2017-11-08T14:02:52.503Z,112.57
2017-11-08T14:05:20.590Z,114.72
2017-11-08T14:07:48.536Z,104.28
2017-11-08T14:10:16.494Z,103.03
2017-11-08T14:12:44.528Z,102.38
2017-11-08T14:15:12.559Z,106.80
2017-11-08T14:17:40.597Z,106.57
2017-11-08T14:20:08.745Z,102.38
2017-11-08T14:22:36.932Z,119.10
2017-11-08T14:25:05.840Z,105.82
2017-11-08T14:27:33.970Z,113.80
2017-11-08T14:30:02.539Z,112.93
2017-11-08T14:32:31.391Z,116.75
2017-11-08T14:34:59.501Z,99.15
2017-11-08T14:37:27.435Z,97.72
2017-11-08T14:39:56.626Z,100.05
2017-11-08T14:42:29.218Z,91.35
2017-11-08T14:44:57.238Z,92.85
2017-11-08T14:47:26.166Z,97.70
2017-11-08T14:49:55.052Z,102.90
2017-11-08T14:52:23.428Z,100.57
2017-11-08T14:54:52.430Z,103.30
2017-11-08T14:57:20.329Z,108.03
2017-11-08T14:59:48.980Z,90.65
2017-11-08T15:02:17.120Z,92.72
2017-11-08T15:04:45.940Z,102.00
2017-11-08T15:07:14.935Z,93.78
2017-11-08T15:09:43.644Z,89.57
2017-11-08T15:12:11.976Z,93.25
2017-11-08T15:14:42.504Z,88.68
2017-11-08T15:17:10.784Z,89.03
2017-11-08T15:19:43.975Z,85.10
2017-11-08T15:22:11.972Z,89.50
2017-11-08T15:24:39.532Z,98.50
2017-11-08T15:27:07.058Z,102.57
2017-11-08T15:29:37.174Z,97.45
2017-11-08T15:32:05.463Z,90.97
2017-11-08T15:34:33.969Z,93.07
2017-11-08T15:37:01.528Z,91.90
2017-11-08T15:39:29.067Z,99.22
2017-11-08T15:41:56.570Z,92.55
2017-11-08T15:44:24.069Z,86.53
2017-11-08T15:46:55.222Z,98.82
2017-11-08T15:49:22.746Z,87.93
2017-11-08T15:51:50.261Z,95.45
2017-11-08T15:54:18.098Z,98.60
2017-11-08T15:56:45.765Z,90.60
2017-11-08T15:59:14.054Z,98.70
2017-11-08T16:01:41.604Z,100.28
2017-11-08T16:04:11.944Z,106.43
2017-11-08T16:06:39.461Z,96.75
2017-11-08T16:09:09.842Z,105.47
2017-11-08T16:11:37.377Z,98.68
2017-11-08T16:14:04.915Z,109.07
2017-11-08T16:16:33.226Z,103.87
2017-11-08T16:19:02.666Z,101.43
2017-11-08T16:21:31.022Z,101.35
2017-11-08T16:23:58.801Z,99.55
2017-11-08T16:26:26.365Z,105.00
2017-11-08T16:28:53.866Z,102.78
2017-11-08T16:31:22.161Z,117.53
2017-11-08T16:33:50.181Z,119.47
2017-11-08T16:36:17.730Z,108.10
2017-11-08T16:38:45.585Z,118.10
2017-11-08T16:41:13.931Z,112.82
2017-11-08T16:43:41.464Z,115.10
2017-11-08T16:46:09.763Z,108.32
2017-11-08T16:48:38.280Z,114.45
2017-11-08T16:51:05.823Z,115.85
2017-11-08T16:53:33.358Z,123.00
2017-11-08T16:56:02.266Z,114.88
2017-11-08T16:58:29.771Z,125.87
2017-11-08T17:00:57.319Z,127.62
2017-11-08T17:03:24.840Z,126.85
2017-11-08T17:05:52.421Z,122.00
2017-11-08T17:08:19.961Z,125.80
2017-11-08T17:10:47.628Z,119.18
2017-11-08T17:13:15.157Z,136.50
2017-11-08T17:15:43.457Z,135.27
2017-11-08T17:18:10.981Z,133.30
2017-11-08T17:20:38.572Z,122.18
2017-11-08T17:23:06.214Z,124.35
2017-11-08T17:25:34.491Z,122.15
2017-11-08T17:28:02.769Z,106.93
2017-11-08T17:30:30.322Z,99.90
2017-11-08T17:32:58.623Z,106.05
2017-11-08T17:35:26.143Z,99.15
2017-11-08T17:37:53.661Z,98.65
2017-11-08T17:40:21.193Z,100.62
2017-11-08T17:42:48.751Z,105.70
2017-11-08T17:45:17.092Z,112.80
2017-11-08T17:47:45.826Z,101.78
2017-11-08T17:50:13.356Z,99.70
2017-11-08T17:52:40.911Z,102.55
2017-11-08T17:55:08.440Z,112.78
2017-11-08T17:57:35.997Z,110.10
2017-11-08T18:00:03.501Z,111.30
2017-11-08T18:02:31.861Z,110.85
2017-11-08T18:04:59.433Z,111.28
2017-11-08T18:07:27.714Z,112.90
2017-11-08T18:09:56.033Z,117.05
2017-11-08T18:12:23.545Z,106.40
2017-11-08T18:14:51.106Z,104.53
2017-11-08T18:17:19.406Z,125.28
2017-11-08T18:19:46.933Z,106.55
2017-11-08T18:22:14.570Z,114.70
2017-11-08T18:24:42.117Z,102.62
2017-11-08T18:27:09.646Z,107.57
2017-11-08T18:29:37.200Z,119.50
2017-11-08T18:32:04.925Z,120.80
2017-11-08T18:34:32.448Z,127.03
2017-11-08T18:37:00.200Z,109.47
2017-11-08T18:39:27.737Z,195.82
2017-11-08T18:41:56.028Z,126.72
2017-11-08T18:44:23.543Z,132.00
2017-11-08T18:46:51.073Z,115.80
2017-11-08T18:49:18.585Z,119.72
2017-11-08T18:51:46.881Z,130.25
2017-11-08T18:54:14.602Z,156.40
2017-11-08T18:56:43.772Z,123.10
2017-11-08T18:59:11.524Z,125.32
2017-11-08T19:01:39.124Z,115.37
2017-11-08T19:04:06.868Z,132.60
2017-11-08T19:06:35.313Z,133.23
2017-11-08T19:09:03.112Z,132.60
2017-11-08T19:11:31.529Z,168.15
2017-11-08T19:14:00.107Z,129.48
2017-11-08T19:16:28.542Z,127.32
2017-11-08T19:18:56.418Z,126.70
2017-11-08T19:21:25.507Z,129.63
2017-11-08T19:23:54.225Z,181.48
2017-11-08T19:26:22.232Z,148.00
2017-11-08T19:28:50.162Z,133.35
2017-11-08T19:31:18.131Z,137.30
2017-11-08T19:33:45.832Z,130.27
2017-11-08T19:36:13.661Z,143.27
2017-11-08T19:38:41.458Z,128.12
2017-11-08T19:41:09.305Z,129.23
2017-11-08T19:43:37.081Z,126.90
2017-11-08T19:46:04.896Z,128.52
2017-11-08T19:48:33.015Z,114.18
2017-11-08T19:51:00.866Z,129.05
2017-11-08T19:53:28.553Z,120.97
2017-11-08T19:55:56.361Z,119.95
2017-11-08T19:58:25.152Z,138.12
2017-11-08T20:00:53.201Z,129.98
2017-11-08T20:03:21.302Z,126.55
2017-11-08T20:05:49.893Z,123.57
2017-11-08T20:08:18.325Z,120.00
2017-11-08T20:10:46.028Z,140.32
2017-11-08T20:13:13.802Z,119.47
2017-11-08T20:15:42.220Z,128.50
2017-11-08T20:18:09.910Z,119.90
2017-11-08T20:20:37.530Z,119.93
2017-11-08T20:23:06.934Z,125.43
2017-11-08T20:25:35.374Z,143.68
2017-11-08T20:28:03.116Z,174.85
2017-11-08T20:30:30.736Z,149.62
2017-11-08T20:32:59.095Z,126.25
2017-11-08T20:35:26.618Z,132.40
2017-11-08T20:37:54.184Z,132.68
2017-11-08T20:40:21.706Z,115.28
2017-11-08T20:42:49.983Z,138.52
2017-11-08T20:45:18.352Z,140.60
2017-11-08T20:47:46.657Z,119.40
2017-11-08T20:50:14.225Z,112.43
2017-11-08T20:52:41.780Z,128.27
2017-11-08T20:55:09.307Z,130.25
2017-11-08T20:57:37.002Z,118.50
2017-11-08T21:00:04.655Z,125.97
2017-11-08T21:02:32.378Z,120.75
2017-11-08T21:04:59.950Z,125.00
2017-11-08T21:07:27.493Z,122.20
2017-11-08T21:09:55.010Z,135.32
2017-11-08T21:12:22.590Z,124.47
2017-11-08T21:14:50.226Z,121.80
2017-11-08T21:17:17.758Z,127.03
2017-11-08T21:19:46.061Z,119.75
2017-11-08T21:22:13.597Z,118.20
2017-11-08T21:24:41.888Z,123.72
2017-11-08T21:27:09.403Z,119.18
2017-11-08T21:29:36.949Z,145.73
2017-11-08T21:32:04.497Z,114.62
2017-11-08T21:34:32.021Z,122.87
2017-11-08T21:37:00.336Z,169.77
2017-11-08T21:39:27.865Z,136.37
2017-11-08T21:41:55.400Z,115.12
2017-11-08T21:44:23.558Z,128.68
2017-11-08T21:46:51.101Z,113.28
2017-11-08T21:49:18.678Z,116.32
2017-11-08T21:51:46.227Z,109.90
2017-11-08T21:54:13.726Z,116.70
2017-11-08T21:56:41.945Z,95.45
2017-11-08T21:59:09.643Z,96.95
2017-11-08T22:01:37.164Z,97.72
2017-11-08T22:04:04.681Z,102.50
2017-11-08T22:06:32.975Z,98.25
2017-11-08T22:09:00.497Z,102.15
2017-11-08T22:11:28.102Z,93.60
2017-11-08T22:13:56.773Z,97.78
2017-11-08T22:16:25.177Z,96.68
2017-11-08T22:18:52.696Z,97.22
2017-11-08T22:21:20.982Z,99.85
2017-11-08T22:23:49.254Z,92.93
2017-11-08T22:26:17.537Z,88.65
2017-11-08T22:28:45.066Z,83.68
2017-11-08T22:31:12.580Z,91.75
2017-11-08T22:33:41.744Z,92.03
2017-11-08T22:36:09.319Z,93.78
2017-11-08T22:38:36.833Z,78.20
2017-11-08T22:41:04.360Z,80.90
2017-11-08T22:43:31.983Z,99.85
2017-11-08T22:46:00.269Z,86.68
2017-11-08T22:48:28.548Z,89.37
2017-11-08T22:50:56.109Z,78.62
2017-11-08T22:53:23.645Z,73.80
2017-11-08T22:55:52.230Z,73.47
2017-11-08T22:58:19.822Z,72.15
2017-11-08T23:00:47.376Z,70.85
2017-11-08T23:03:14.909Z,76.72
2017-11-08T23:05:43.211Z,68.35
2017-11-08T23:08:10.733Z,69.45
2017-11-08T23:10:38.234Z,75.20
2017-11-08T23:13:05.780Z,76.37
2017-11-08T23:15:33.298Z,75.97
2017-11-08T23:18:00.806Z,70.53
2017-11-08T23:20:29.322Z,74.22
2017-11-08T23:22:57.174Z,72.78
2017-11-08T23:25:24.691Z,78.30
2017-11-08T23:27:53.024Z,79.62
2017-11-08T23:30:20.533Z,78.35
2017-11-08T23:32:48.051Z,72.40
2017-11-08T23:35:16.365Z,85.45
2017-11-08T23:37:43.880Z,86.87
2017-11-08T23:40:11.532Z,76.68
2017-11-08T23:42:39.729Z,82.50
2017-11-08T23:45:07.451Z,77.93
2017-11-08T23:47:34.996Z,86.65
2017-11-08T23:50:02.552Z,77.82
2017-11-08T23:52:30.837Z,79.95
2017-11-08T23:54:58.363Z,81.78
2017-11-08T23:57:26.263Z,77.03
2017-11-08T23:59:59.495Z,79.60
